Capitol Logistics 573




RPLL
Ninoy Aquino International Airport
Manila, PH
RJAA
Tokyo-Narita International Airport
Tokyo, JP

Activity Log

Date Flight Route Aircraft Duration
No Flights Yet

Route Details

Aircraft Information
Group: Trans-Pacific Ops
Types: B744,B763,MD11
Route Data
Demand: H
Distance: 1649nm
Duration: 4h 09m
Recm'd Route: CAB1C CAB N884 ALBAX Y533 AZAMA Y57 YULIA Y89 GUPER Y81 RUTAS RUTASN
Origin Wx: RPLL 272100Z 03007KT 360V080 9000 VCSH SCT023 BKN090 27/25 Q1008 NOSIG RMK A2977 VCSH N
Dest. Wx: RJAA 272100Z VRB01KT 9999 FEW015 BKN100 18/17 Q0999 NOSIG RMK 1CU015 6AC100 A2953
Notes:

Financial History
Total Freight: 0lbs
Average Load: 0lbs/flt
Fuel Used: 0lbs
Avg. Fuel Used: 0lbs/flt
Fuel Expense: $0
Avg. Fuel Expense: $0
Avg. Fuel Cost: $0/lbs
Total Gross Income: $0
Pilot Pay: $0
Total Expenses: $0
Total Revenue: $0
Average Revenue: $0